Hauptseite
METAR-TAF:

METAR-TAF

Flughäfen :

Flughafen Paris-Charles-de-Gaulle

Paris-Charles De Gaulle, Frankreich

Breite: 49-01N, Länge: 002-32E, Höhe: 118 m

Beobachtung

Neuester Wetterbericht von vor 28 Minuten, um 19:00 UTC
Wind 1 kt aus Nordwest
Temperatur 19°C
Luftfeuchtigkeit 40%
Luftdruck 1020 hPa
Sichtweite 10 km oder mehr
keine Wolken unter 1500 m und keine Kumulonimbus oder Gewitterwolken

METAR: LFPG 221900Z 31001KT CAVOK 19/05 Q1020 NOSIG

Zeit: 21:28 (19:28 UTC)

Prognose

Neuester Wetterbericht von vor 2 Stunden und 28 Minuten, um 17:00 UTC
Gültige Prognose vom 22 um 18 UTC bis 23 um 24 UTC
Wind 3 kt aus Ost/Südost
Sichtweite 10 km oder mehr
keine Wolken unter 1500 m und keine Kumulonimbus oder Gewitterwolken

TAF: LFPG 221700Z 2218/2324 12003KT CAVOK TX23/2315Z TN10/2304Z

Wetterbeobachtungen und Prognosen von mehr als 4000 Flughäfen (METAR und TAF Bericht).

Die verfügbaren Stationen werden durch gelbe und rote Markierungen auf der Karte dargestellt.

Führen Sie die Maus auf sie, um den Namen der Station zu sehen.

Darauf klicken, um die Beobachtung von Wetterbeobachtungen und Prognosen zu sehen.

Um die Karte zu ändern : klicken Sie auf den grünen Tasten mit einem schwarzen Kreuz Zum Vergrößern, auf den grünen Button mit einem Gedankenstrich zu verkleinern, oder auf die grünen Pfeile für benachbarte Karten.


METAR-TAF: